Barbeau, MI (49710)

4:08 PM EDT on April 19, 2015 (GMT -0400)
Charlotte Beach | | Change Station
CLOSE
Current Station
Personal Weather Station
Location: Barbeau, MI
Elevation: 571 ft
Nearby Weather Stations

Elev 571 ft 46.31 °N, 84.22 °W | Updated 12 minutes ago

Clear
Clear
46.9 °F
Feels Like 40 °F
N
16.0
Wind Variable Wind from ESE
Gusts 28.0 mph

Today
High -- | Low -- °F
--% Chance of Precip.
Yesterday
High -- | Low -- °F
Precip. -- in
6:43 AM 8:29 PM
New Moon, 2% visible
Pressure 29.90 in
Visibility 10.0 miles
Clouds Clear
Windchill 40 °F
Dew Point 30 °F
Humidity 53%
Rainfall 0.00 in
Snow Depth Not available.
UV 6 out of 12
Pollen 9.80 out of 12
Air Quality Not available.
Flu Activity Regional
METAR KCIU 191955Z AUTO 10018G27KT 10SM CLR 09/M02 A2990 RMK AO1

More Conditions Fewer Conditions

Pressure 29.90 in
Visibility 10.0 miles
Clouds Clear
Windchill 40 °F
Dew Point 30 °F
Humidity 53%
Rainfall 0.00 in
Snow Depth Not available.
UV 6 out of 12
Pollen 9.80 out of 12
Air Quality Not available.
Flu Activity Regional
METAR KCIU 191955Z AUTO 10018G27KT 10SM CLR 09/M02 A2990 RMK AO1

More Conditions Fewer Conditions

Nowcast | as of 4:00 PM EDT on April 19, 2015

At 5 PM...partly cloudy. Temperature 50. Southeast winds 17 mph. At 7 PM...mostly cloudy. Temperature 51. Southeast winds 14 mph. At 9 PM...mostly cloudy. Slight chance of rain. Temperature 47. East winds 12 mph. At 11 PM...cloudy. Chance of rain. Temperature 43. East winds 12 mph.

×

10-Day Weather Forecast

Almanac

Astronomy

Apr. 19, 2015 Rise Set
Actual Time
Civil Twilight
Nautical Twilight
Astronomical Twilight
Moon
Length of Visible Light
Length of Day
Tomorrow will be .
, % of the Moon is Illuminated

Today's Extremes

State Highs State Lows

Community

WunderPhotos

Upload Photos

1,814,956 photos uploaded!

WunderBlogs® & News

Nearby

Air Quality

  Air Quality AQ Index Pollutant
Not available.

Snow Depth

Station Depth Elevation

Earthquake Activity

City Distance Mag. Time & Date
Minimum magnitude displayed is 2.5.

Coastal Water Temperatures

Place Temperature

Stations

Nearby Weather Stations

Station Location Temp. Windchill Dew Point Humidity Wind Precip. Elev Updated Type